Time;durP1;ratioP1;P1;durP2;ratioP2;P2;SDS_P1;SDS_P2;PMS_P1;PMS_P2;Temp;Humidity;BMP_temperature;BMP_pressure;BME280_temperature;BME280_humidity;BME280_pressure;Samples;Min_cycle;Max_cycle;Signal;HPM_P1;HPM_P2
2022/12/31 00:00:10;;;;;;;10.52;3.13;;;17.00;1.00;;;;;;5073599;28;20461;-32
2022/12/31 00:02:38;;;;;;;7.60;1.50;;;16.90;1.00;;;;;;5072852;28;20036;-32
2022/12/31 00:05:06;;;;;;;14.27;2.78;;;16.90;1.00;;;;;;5072958;28;20102;-32
2022/12/31 00:07:36;;;;;;;12.07;3.60;;;16.90;1.00;;;;;;5063805;28;20098;-32
2022/12/31 00:10:03;;;;;;;9.18;2.75;;;16.90;1.00;;;;;;5064435;28;20021;-32
2022/12/31 00:12:30;;;;;;;14.35;3.17;;;16.90;1.00;;;;;;5066142;28;20051;-32
2022/12/31 00:14:56;;;;;;;8.52;2.33;;;16.90;1.00;;;;;;5067584;28;20098;-32
2022/12/31 00:17:23;;;;;;;10.15;3.13;;;16.90;1.00;;;;;;5073102;28;20040;-32
2022/12/31 00:19:50;;;;;;;11.00;3.50;;;16.80;1.00;;;;;;5072996;28;20079;-32
2022/12/31 00:22:17;;;;;;;10.38;2.47;;;16.80;1.00;;;;;;5072625;28;20488;-32
2022/12/31 00:24:43;;;;;;;9.30;2.85;;;16.80;1.00;;;;;;5072772;28;20048;-32
2022/12/31 00:27:10;;;;;;;8.73;2.35;;;16.80;1.00;;;;;;5073174;28;20449;-33
2022/12/31 00:29:37;;;;;;;11.73;1.92;;;16.80;1.00;;;;;;5072797;28;20041;-32
2022/12/31 00:32:04;;;;;;;13.07;2.75;;;16.80;1.00;;;;;;5072869;28;20078;-32
2022/12/31 00:34:31;;;;;;;8.63;2.03;;;16.70;1.00;;;;;;5072390;28;20049;-33
2022/12/31 00:36:57;;;;;;;10.30;1.90;;;16.70;1.00;;;;;;5072562;28;20094;-32
2022/12/31 00:39:24;;;;;;;8.48;2.47;;;16.70;1.00;;;;;;5064825;28;20434;-32
2022/12/31 00:41:51;;;;;;;12.80;3.42;;;16.70;1.00;;;;;;5034981;28;20127;-32
2022/12/31 00:44:18;;;;;;;8.60;2.65;;;16.70;1.00;;;;;;5052309;28;20115;-33
2022/12/31 00:46:44;;;;;;;9.60;2.60;;;16.70;1.00;;;;;;5052517;28;20041;-32
2022/12/31 00:49:11;;;;;;;8.75;2.50;;;16.70;1.00;;;;;;5052511;28;20076;-32
2022/12/31 00:51:38;;;;;;;11.43;3.30;;;16.70;1.00;;;;;;5052378;28;20393;-32
2022/12/31 00:54:05;;;;;;;12.68;2.40;;;16.70;1.00;;;;;;5034363;28;20045;-32
2022/12/31 00:56:31;;;;;;;15.30;2.95;;;16.70;1.00;;;;;;5052379;28;20049;-32
2022/12/31 00:58:59;;;;;;;9.52;2.70;;;16.70;1.00;;;;;;5052346;28;20124;-32
2022/12/31 01:01:38;;;;;;;7.65;2.28;;;16.70;1.00;;;;;;5052022;28;20075;-32
2022/12/31 01:04:09;;;;;;;11.02;2.38;;;16.70;1.00;;;;;;5059007;28;20518;-32
2022/12/31 01:06:37;;;;;;;15.35;2.50;;;16.60;1.00;;;;;;5065543;28;20041;-32
2022/12/31 01:09:05;;;;;;;16.83;3.67;;;16.60;1.00;;;;;;5067564;28;20036;-32
2022/12/31 01:11:32;;;;;;;10.13;2.30;;;16.60;1.00;;;;;;5072154;28;20040;-32
2022/12/31 01:14:05;;;;;;;10.65;2.13;;;16.60;1.00;;;;;;5071842;28;20071;-32
2022/12/31 01:16:35;;;;;;;10.50;2.55;;;16.60;1.00;;;;;;5072011;28;20047;-32
2022/12/31 01:19:05;;;;;;;10.05;2.28;;;16.60;1.00;;;;;;5071785;28;20072;-32
2022/12/31 01:21:33;;;;;;;5.32;1.63;;;16.60;1.00;;;;;;5071758;28;20036;-32
2022/12/31 01:24:00;;;;;;;10.48;2.17;;;16.60;1.00;;;;;;5071664;28;20041;-32
2022/12/31 01:26:27;;;;;;;7.35;1.50;;;16.60;1.00;;;;;;5057455;28;20064;-32
2022/12/31 01:28:54;;;;;;;17.65;3.67;;;16.60;1.00;;;;;;5060108;28;20499;-32
2022/12/31 01:31:22;;;;;;;13.55;2.58;;;16.60;1.00;;;;;;5065631;28;20115;-32
2022/12/31 01:33:51;;;;;;;13.57;2.00;;;16.60;1.00;;;;;;5061096;28;20041;-32
2022/12/31 01:36:23;;;;;;;9.10;2.25;;;16.50;1.00;;;;;;5060643;28;20045;-32
2022/12/31 01:38:53;;;;;;;12.68;2.78;;;16.50;1.00;;;;;;5071918;28;20040;-32
2022/12/31 01:41:22;;;;;;;10.63;2.33;;;16.50;1.00;;;;;;5071691;28;20064;-32
2022/12/31 01:43:53;;;;;;;8.77;2.03;;;16.50;1.00;;;;;;5053431;28;20083;-32
2022/12/31 01:46:23;;;;;;;10.93;2.53;;;16.50;1.00;;;;;;5071681;28;20200;-32
2022/12/31 01:48:53;;;;;;;5.78;1.98;;;16.50;1.00;;;;;;5071739;28;20051;-32
2022/12/31 01:51:21;;;;;;;13.65;2.70;;;16.50;1.00;;;;;;5071641;28;20032;-32
2022/12/31 01:53:49;;;;;;;7.00;1.60;;;16.50;1.00;;;;;;5071412;28;20046;-32
2022/12/31 01:56:18;;;;;;;8.07;1.50;;;16.50;1.00;;;;;;5071706;28;20045;-32
2022/12/31 01:58:48;;;;;;;7.00;2.17;;;16.50;1.00;;;;;;5071595;28;20098;-32
2022/12/31 02:01:21;;;;;;;11.50;2.70;;;16.40;1.00;;;;;;5071552;28;20041;-33
2022/12/31 02:03:49;;;;;;;10.43;2.47;;;16.40;1.00;;;;;;5071324;28;20041;-32
2022/12/31 02:06:33;;;;;;;9.05;2.53;;;16.40;1.00;;;;;;5071479;28;20032;-32
2022/12/31 02:09:00;;;;;;;10.73;1.85;;;16.40;1.00;;;;;;5071462;28;20102;-32
2022/12/31 02:11:35;;;;;;;11.48;3.03;;;16.40;1.00;;;;;;5071471;28;20075;-32
2022/12/31 02:14:12;;;;;;;6.25;1.88;;;16.40;1.00;;;;;;5071455;28;20047;-32
2022/12/31 02:17:25;;;;;;;9.20;2.63;;;16.40;1.00;;;;;;5053567;28;20048;-32
2022/12/31 02:20:00;;;;;;;15.93;2.67;;;16.40;1.00;;;;;;5040582;28;20140;-32
2022/12/31 02:23:00;;;;;;;10.55;2.60;;;16.40;1.00;;;;;;5071121;28;20049;-32
2022/12/31 02:25:45;;;;;;;8.75;2.42;;;16.40;1.00;;;;;;5071233;28;20040;-32
2022/12/31 02:28:21;;;;;;;13.15;2.67;;;16.30;1.00;;;;;;5071389;28;20047;-32
2022/12/31 02:30:56;;;;;;;8.88;2.63;;;16.30;1.00;;;;;;5071366;28;20044;-32
2022/12/31 02:33:53;;;;;;;11.43;2.03;;;16.30;1.00;;;;;;5042687;28;20044;-32
2022/12/31 02:36:26;;;;;;;7.50;2.03;;;16.30;1.00;;;;;;5044453;28;20126;-32
2022/12/31 02:38:54;;;;;;;7.65;1.58;;;16.30;1.00;;;;;;5055062;28;20044;-32
2022/12/31 02:44:27;;;;;;;8.40;1.85;;;16.30;1.00;;;;;;5054657;28;20448;-32
2022/12/31 02:47:08;;;;;;;6.78;1.88;;;16.30;1.00;;;;;;5054806;28;20526;-32
2022/12/31 02:49:48;;;;;;;5.90;2.40;;;16.30;1.00;;;;;;5054834;28;20056;-32
2022/12/31 02:52:27;;;;;;;6.05;1.75;;;16.30;1.00;;;;;;5054621;28;20128;-32
2022/12/31 02:55:20;;;;;;;14.02;2.70;;;16.20;1.00;;;;;;5066842;22;20039;-38
2022/12/31 02:57:56;;;;;;;7.27;1.77;;;16.20;1.00;;;;;;5042988;28;20041;-37
2022/12/31 03:03:10;;;;;;;8.10;1.45;;;16.20;1.00;;;;;;5034235;28;20045;-36
2022/12/31 03:05:41;;;;;;;7.50;1.85;;;16.20;1.00;;;;;;5026750;28;20042;-35
2022/12/31 03:08:08;;;;;;;7.28;1.83;;;16.20;1.00;;;;;;5014972;28;20041;-37
2022/12/31 03:10:35;;;;;;;6.53;1.88;;;16.20;1.00;;;;;;5014840;28;20084;-37
2022/12/31 03:13:02;;;;;;;6.13;2.22;;;16.20;1.00;;;;;;5014599;28;20513;-37
2022/12/31 03:15:31;;;;;;;7.38;1.77;;;16.20;1.00;;;;;;5014635;28;20084;-37
2022/12/31 03:17:59;;;;;;;5.70;2.10;;;16.20;1.00;;;;;;5014582;28;20061;-37
2022/12/31 03:23:28;;;;;;;9.30;1.67;;;16.20;1.00;;;;;;5014187;28;20050;-36
2022/12/31 03:25:56;;;;;;;7.82;2.08;;;16.20;1.00;;;;;;5014507;28;20490;-36
2022/12/31 03:28:28;;;;;;;8.52;2.30;;;16.20;1.00;;;;;;5014390;28;20045;-36
2022/12/31 03:30:59;;;;;;;5.72;1.55;;;16.20;1.00;;;;;;5014521;28;20061;-36
2022/12/31 03:33:30;;;;;;;8.88;2.28;;;16.20;1.00;;;;;;5014190;28;20572;-37
2022/12/31 03:35:56;;;;;;;4.57;1.45;;;16.10;1.00;;;;;;5014248;28;20046;-37
2022/12/31 03:38:23;;;;;;;4.18;1.48;;;16.20;1.00;;;;;;5014341;28;20121;-38
2022/12/31 03:40:51;;;;;;;11.60;1.77;;;16.10;1.00;;;;;;5014130;28;20056;-37
2022/12/31 03:43:19;;;;;;;6.53;1.50;;;16.10;1.00;;;;;;5013451;28;20061;-37
2022/12/31 03:45:53;;;;;;;5.90;1.52;;;16.10;1.00;;;;;;5014138;28;20108;-37
2022/12/31 03:48:21;;;;;;;4.50;1.85;;;16.10;1.00;;;;;;5014079;28;20050;-37
2022/12/31 03:50:48;;;;;;;7.85;2.17;;;16.10;1.00;;;;;;5014025;28;20069;-37
2022/12/31 03:53:15;;;;;;;5.35;1.60;;;16.10;1.00;;;;;;5014527;28;20049;-36
2022/12/31 03:55:42;;;;;;;6.88;1.70;;;16.10;1.00;;;;;;5015130;28;20137;-37
2022/12/31 03:58:09;;;;;;;9.00;2.45;;;16.10;1.00;;;;;;5015477;28;20099;-37
2022/12/31 04:00:36;;;;;;;9.73;2.28;;;16.10;1.00;;;;;;5014707;28;20042;-38
2022/12/31 04:03:02;;;;;;;8.95;1.50;;;16.10;1.00;;;;;;4996832;28;20069;-38
2022/12/31 04:05:30;;;;;;;9.20;2.30;;;16.10;1.00;;;;;;5014060;28;20046;-37
2022/12/31 04:07:56;;;;;;;10.18;2.13;;;16.10;1.00;;;;;;5013867;28;20634;-37
2022/12/31 04:10:23;;;;;;;7.93;1.30;;;16.10;1.00;;;;;;5013546;28;20046;-37
2022/12/31 04:12:50;;;;;;;6.13;1.73;;;16.10;1.00;;;;;;5013391;28;20080;-37
2022/12/31 04:15:19;;;;;;;7.90;1.95;;;16.10;1.00;;;;;;5013602;28;20050;-38
2022/12/31 04:17:47;;;;;;;8.23;1.70;;;16.00;1.00;;;;;;5013445;28;20103;-37
2022/12/31 04:20:15;;;;;;;5.43;1.80;;;16.10;1.00;;;;;;5013255;28;20080;-37
2022/12/31 04:22:42;;;;;;;9.90;1.88;;;16.00;1.00;;;;;;5013134;28;20064;-37
2022/12/31 04:25:10;;;;;;;7.22;2.20;;;16.00;1.00;;;;;;5013268;28;20038;-37
2022/12/31 04:27:39;;;;;;;8.45;2.53;;;16.00;1.00;;;;;;5013437;28;20092;-37
2022/12/31 04:30:09;;;;;;;6.70;1.70;;;16.00;1.00;;;;;;5013134;28;20057;-37
2022/12/31 04:32:35;;;;;;;7.28;2.10;;;16.00;1.00;;;;;;5013134;28;20049;-36
2022/12/31 04:35:02;;;;;;;6.30;1.67;;;16.00;1.00;;;;;;5012946;28;20046;-36
2022/12/31 04:37:29;;;;;;;5.35;1.48;;;16.00;1.00;;;;;;5013247;28;20452;-36
2022/12/31 04:39:56;;;;;;;6.90;2.35;;;16.00;1.00;;;;;;5013063;28;20042;-36
2022/12/31 04:42:31;;;;;;;7.10;1.50;;;16.00;1.00;;;;;;5012881;28;20046;-36
2022/12/31 04:44:57;;;;;;;7.55;2.00;;;16.00;1.00;;;;;;5012845;28;20084;-36
2022/12/31 04:47:24;;;;;;;6.38;1.55;;;16.00;1.00;;;;;;5012813;28;20374;-36
2022/12/31 04:49:51;;;;;;;3.85;1.48;;;16.00;1.00;;;;;;5012930;28;20042;-36
2022/12/31 04:52:18;;;;;;;4.93;1.33;;;16.00;1.00;;;;;;5012732;28;20037;-36
2022/12/31 04:54:44;;;;;;;6.60;1.65;;;16.00;1.00;;;;;;5012228;28;20417;-37
2022/12/31 04:57:11;;;;;;;10.00;1.90;;;16.00;1.00;;;;;;5012684;28;20049;-36
2022/12/31 04:59:38;;;;;;;6.50;1.58;;;16.00;1.00;;;;;;5012735;28;20045;-37
2022/12/31 05:02:05;;;;;;;6.88;2.25;;;16.00;1.00;;;;;;5012610;28;20050;-36
2022/12/31 05:04:32;;;;;;;6.78;1.50;;;16.00;1.00;;;;;;5012533;28;20069;-36
2022/12/31 05:06:59;;;;;;;7.70;1.20;;;15.90;1.00;;;;;;5012526;28;20505;-37
2022/12/31 05:09:27;;;;;;;6.28;2.03;;;15.90;1.00;;;;;;5012656;28;20494;-37
2022/12/31 05:11:54;;;;;;;7.13;1.30;;;15.90;1.00;;;;;;5012474;28;20048;-37
2022/12/31 05:14:20;;;;;;;7.03;1.30;;;15.90;1.00;;;;;;5012141;28;20041;-36
2022/12/31 05:16:47;;;;;;;5.28;1.65;;;15.90;1.00;;;;;;5012567;28;20129;-37
2022/12/31 05:19:14;;;;;;;10.50;1.60;;;15.90;1.00;;;;;;5012552;28;20073;-35
2022/12/31 05:21:41;;;;;;;7.20;1.77;;;15.90;1.00;;;;;;5012311;28;20045;-37
2022/12/31 05:24:08;;;;;;;7.05;1.80;;;15.90;1.00;;;;;;5012535;28;20153;-36
2022/12/31 05:26:34;;;;;;;5.38;1.00;;;15.90;1.00;;;;;;5012177;28;20042;-37
2022/12/31 05:29:01;;;;;;;7.63;1.45;;;15.90;1.00;;;;;;5012195;28;20045;-36
2022/12/31 05:31:28;;;;;;;5.05;1.73;;;15.90;1.00;;;;;;5012352;28;20444;-36
2022/12/31 05:33:55;;;;;;;6.68;2.17;;;15.90;1.00;;;;;;5011947;28;20045;-36
2022/12/31 05:36:22;;;;;;;6.78;1.92;;;15.90;1.00;;;;;;5012061;28;20489;-37
2022/12/31 05:38:49;;;;;;;4.30;1.63;;;15.90;1.00;;;;;;5012253;28;20050;-36
2022/12/31 05:41:15;;;;;;;4.25;1.50;;;15.90;1.00;;;;;;5012143;28;20046;-36
2022/12/31 05:43:42;;;;;;;5.22;1.38;;;15.90;1.00;;;;;;5011495;28;20074;-36
2022/12/31 05:46:09;;;;;;;5.03;1.27;;;15.90;1.00;;;;;;5012019;28;20038;-36
2022/12/31 05:48:36;;;;;;;6.60;1.30;;;15.90;1.00;;;;;;5012142;28;20048;-37
2022/12/31 05:51:03;;;;;;;7.95;1.58;;;15.90;1.00;;;;;;5012168;28;20042;-36
2022/12/31 05:53:29;;;;;;;5.05;1.02;;;15.90;1.00;;;;;;5011746;28;20049;-36
2022/12/31 05:55:56;;;;;;;7.13;1.52;;;15.80;1.00;;;;;;5011792;28;20068;-36
2022/12/31 05:58:24;;;;;;;7.47;2.20;;;15.80;1.00;;;;;;5011990;28;20128;-37
2022/12/31 06:00:51;;;;;;;3.95;1.10;;;15.80;1.00;;;;;;5016026;28;20116;-36
2022/12/31 06:03:18;;;;;;;7.63;1.08;;;15.90;1.00;;;;;;5040439;28;20069;-36
2022/12/31 06:05:45;;;;;;;5.10;1.17;;;15.80;1.00;;;;;;5040342;28;20073;-36
2022/12/31 06:08:12;;;;;;;7.13;1.20;;;15.80;1.00;;;;;;5043710;28;20042;-36
2022/12/31 06:10:39;;;;;;;7.10;0.82;;;15.80;1.00;;;;;;5055409;28;20045;-36
2022/12/31 06:13:06;;;;;;;7.47;1.65;;;15.80;1.00;;;;;;5049505;28;20094;-36
2022/12/31 06:15:39;;;;;;;4.30;1.77;;;15.80;1.00;;;;;;5047134;28;20045;-36
2022/12/31 06:18:06;;;;;;;6.15;1.17;;;15.80;1.00;;;;;;5055427;28;20041;-36
2022/12/31 06:20:35;;;;;;;7.30;1.75;;;15.80;1.00;;;;;;5055344;28;20435;-37
2022/12/31 06:23:03;;;;;;;5.22;1.58;;;15.80;1.00;;;;;;5055073;28;20041;-36
2022/12/31 06:25:30;;;;;;;5.93;1.08;;;15.80;1.00;;;;;;5055107;28;20098;-36
2022/12/31 06:27:56;;;;;;;4.05;1.10;;;15.80;1.00;;;;;;5055213;28;20041;-37
2022/12/31 06:30:23;;;;;;;3.58;1.05;;;15.90;1.00;;;;;;5055195;28;20041;-36
2022/12/31 06:32:50;;;;;;;4.28;1.63;;;15.80;1.00;;;;;;5054883;28;20052;-36
2022/12/31 06:35:17;;;;;;;7.22;2.55;;;15.80;1.00;;;;;;5054950;28;20065;-37
2022/12/31 06:37:43;;;;;;;5.85;1.55;;;15.80;1.00;;;;;;5054993;28;20447;-37
2022/12/31 06:40:10;;;;;;;5.95;1.35;;;15.80;1.00;;;;;;5037598;28;20486;-37
2022/12/31 06:42:37;;;;;;;8.32;1.55;;;15.80;1.00;;;;;;5036872;28;20049;-36
2022/12/31 06:45:05;;;;;;;2.78;1.00;;;15.80;1.00;;;;;;5054797;28;20080;-37
2022/12/31 06:47:32;;;;;;;5.93;1.73;;;15.80;1.00;;;;;;5054857;28;20037;-37
2022/12/31 06:49:58;;;;;;;2.85;1.15;;;15.80;1.00;;;;;;5054800;28;20045;-36
2022/12/31 06:52:25;;;;;;;4.47;1.38;;;15.80;1.00;;;;;;5054461;28;20041;-37
2022/12/31 06:54:52;;;;;;;3.78;1.10;;;15.70;1.00;;;;;;5054411;28;20037;-37
2022/12/31 06:57:19;;;;;;;3.40;1.10;;;15.70;1.00;;;;;;5054675;28;20043;-37
2022/12/31 06:59:46;;;;;;;6.10;1.00;;;15.70;1.00;;;;;;5054725;28;20524;-37
2022/12/31 07:02:13;;;;;;;7.00;1.63;;;15.70;1.00;;;;;;5054402;28;20041;-37
2022/12/31 07:05:15;;;;;;;3.97;1.20;;;15.70;1.00;;;;;;5054226;28;20045;-38
2022/12/31 07:08:15;;;;;;;6.43;1.23;;;15.70;1.00;;;;;;5054604;28;20427;-37
2022/12/31 07:11:27;;;;;;;3.00;0.88;;;15.70;1.00;;;;;;5054453;28;20052;-37
2022/12/31 07:14:06;;;;;;;2.63;0.88;;;15.70;1.00;;;;;;4953790;29;20066;-36
2022/12/31 07:16:48;;;;;;;3.10;1.38;;;15.70;1.00;;;;;;4953949;28;20103;-37
2022/12/31 07:19:46;;;;;;;2.65;0.90;;;15.70;1.00;;;;;;5024164;28;20505;-37
2022/12/31 07:22:21;;;;;;;3.25;1.02;;;15.70;1.00;;;;;;5037594;28;20102;-37
2022/12/31 07:24:49;;;;;;;5.13;0.80;;;15.70;1.00;;;;;;5054112;28;20069;-37
2022/12/31 07:27:34;;;;;;;4.85;1.10;;;15.70;1.00;;;;;;5054014;28;20385;-37
2022/12/31 07:30:06;;;;;;;3.90;1.13;;;15.70;1.00;;;;;;5054219;28;20120;-37
2022/12/31 07:32:33;;;;;;;2.40;0.57;;;15.70;1.00;;;;;;5054087;28;20068;-37
2022/12/31 07:35:41;;;;;;;4.57;1.20;;;15.70;1.00;;;;;;5053754;28;20037;-37
2022/12/31 07:38:20;;;;;;;4.72;1.38;;;15.70;1.00;;;;;;5020229;28;20517;-36
2022/12/31 07:41:11;;;;;;;4.43;1.17;;;15.70;1.00;;;;;;5030190;28;20039;-36
2022/12/31 07:44:05;;;;;;;6.68;1.63;;;15.60;1.00;;;;;;5030973;28;20073;-36
2022/12/31 07:46:38;;;;;;;;;;;15.60;1.00;;;;;;5021503;28;20045;-36
2022/12/31 07:49:10;;;;;;;8.60;0.93;;;15.60;1.00;;;;;;5035028;28;20567;-35
2022/12/31 07:51:37;;;;;;;3.47;0.95;;;15.60;1.00;;;;;;5049667;28;20068;-36
2022/12/31 07:54:04;;;;;;;2.67;1.10;;;15.60;1.00;;;;;;5048765;28;20044;-36
2022/12/31 07:56:39;;;;;;;2.60;0.85;;;15.60;1.00;;;;;;5053351;28;20045;-35
2022/12/31 07:59:27;;;;;;;5.72;0.85;;;15.60;1.00;;;;;;5053415;28;20040;-35
2022/12/31 08:02:05;;;;;;;3.88;1.35;;;15.60;1.00;;;;;;5047498;28;20042;-36
2022/12/31 08:04:53;;;;;;;10.80;0.98;;;15.60;1.00;;;;;;5052845;28;20041;-36
2022/12/31 08:07:47;;;;;;;2.83;1.00;;;15.60;1.00;;;;;;5053310;28;20603;-36
2022/12/31 08:10:51;;;;;;;8.65;1.13;;;15.60;1.00;;;;;;5053195;28;20044;-36
2022/12/31 08:13:18;;;;;;;4.80;0.73;;;15.60;1.00;;;;;;5052611;28;20040;-36
2022/12/31 08:15:45;;;;;;;4.97;1.20;;;15.60;1.00;;;;;;5037196;28;20046;-36
2022/12/31 08:18:12;;;;;;;9.80;1.10;;;15.60;1.00;;;;;;5034917;28;20400;-36
2022/12/31 08:20:54;;;;;;;2.63;1.20;;;15.60;1.00;;;;;;5030218;28;20051;-37
2022/12/31 08:23:31;;;;;;;9.93;1.65;;;15.60;1.00;;;;;;5024783;28;20091;-37
2022/12/31 08:26:38;;;;;;;14.27;1.83;;;15.60;1.00;;;;;;5025444;28;20423;-36
2022/12/31 08:29:11;;;;;;;5.78;0.95;;;15.60;1.00;;;;;;5032622;28;20045;-37
2022/12/31 08:32:13;;;;;;;5.18;1.30;;;15.60;1.00;;;;;;5031707;28;20046;-37
2022/12/31 08:34:50;;;;;;;5.20;0.80;;;15.60;1.00;;;;;;4925099;29;20047;-37
2022/12/31 08:37:32;;;;;;;5.97;1.45;;;15.60;1.00;;;;;;5002318;28;20148;-37
2022/12/31 08:40:09;;;;;;;6.30;1.05;;;15.60;1.00;;;;;;5013003;28;20046;-36
2022/12/31 08:42:48;;;;;;;4.50;1.08;;;15.60;1.00;;;;;;5012703;28;20489;-36
2022/12/31 08:45:35;;;;;;;3.13;0.80;;;15.60;1.00;;;;;;5012686;28;20046;-36
2022/12/31 08:48:20;;;;;;;7.72;1.63;;;15.60;1.00;;;;;;5012870;28;20056;-36
2022/12/31 08:50:51;;;;;;;8.05;1.40;;;15.60;1.00;;;;;;5013733;28;20044;-36
2022/12/31 08:53:38;;;;;;;8.48;1.58;;;15.60;1.00;;;;;;5041099;28;20083;-36
2022/12/31 08:56:40;;;;;;;8.15;1.70;;;15.60;1.00;;;;;;5043719;28;20048;-36
2022/12/31 08:59:25;;;;;;;7.78;1.52;;;15.60;1.00;;;;;;5052225;28;20087;-36
2022/12/31 09:02:42;;;;;;;11.65;3.17;;;15.60;1.00;;;;;;5052157;28;20045;-36
2022/12/31 09:05:29;;;;;;;9.52;2.13;;;15.60;1.00;;;;;;5003302;28;20060;-36
2022/12/31 09:08:15;;;;;;;10.80;2.05;;;15.60;1.00;;;;;;5051893;28;20045;-36
2022/12/31 09:11:17;;;;;;;8.38;1.27;;;15.60;1.00;;;;;;5052013;28;20045;-36
2022/12/31 09:13:59;;;;;;;6.03;1.05;;;15.60;1.00;;;;;;5051937;28;20037;-36
2022/12/31 09:16:59;;;;;;;6.47;2.25;;;15.50;1.00;;;;;;5034564;28;20055;-36
2022/12/31 09:19:26;;;;;;;8.55;1.48;;;15.60;1.00;;;;;;5041378;28;20045;-35
2022/12/31 09:21:54;;;;;;;8.13;2.05;;;15.50;1.00;;;;;;5012251;28;20049;-35
2022/12/31 09:24:27;;;;;;;15.18;3.47;;;15.50;1.00;;;;;;5037801;28;20436;-36
2022/12/31 09:27:17;;;;;;;18.88;4.10;;;15.50;1.00;;;;;;5043767;28;20409;-35
2022/12/31 09:29:58;;;;;;;10.82;3.28;;;15.50;1.00;;;;;;5040225;28;20053;-35
2022/12/31 09:33:06;;;;;;;15.35;3.65;;;15.50;1.00;;;;;;5032086;28;20041;-35
2022/12/31 09:35:54;;;;;;;17.27;2.45;;;15.50;1.00;;;;;;5031798;28;20041;-35
2022/12/31 09:38:40;;;;;;;17.38;2.63;;;15.50;1.00;;;;;;5014908;28;20543;-35
2022/12/31 09:41:14;;;;;;;14.18;2.75;;;15.50;1.00;;;;;;5031496;28;20067;-35
2022/12/31 09:44:12;;;;;;;11.50;2.30;;;15.50;1.00;;;;;;5031564;28;20404;-35
2022/12/31 09:47:17;;;;;;;9.15;2.92;;;15.50;1.00;;;;;;5031701;28;20485;-35
2022/12/31 09:49:50;;;;;;;13.40;2.15;;;15.50;1.00;;;;;;5031704;28;20038;-35
2022/12/31 09:52:42;;;;;;;15.05;3.80;;;15.50;1.00;;;;;;5013852;28;20049;-36
2022/12/31 09:55:30;;;;;;;9.65;3.70;;;15.50;1.00;;;;;;5031451;28;20061;-35
2022/12/31 09:58:16;;;;;;;16.42;2.67;;;15.50;1.00;;;;;;5031560;28;20116;-36
2022/12/31 10:01:18;;;;;;;11.70;2.35;;;15.50;1.00;;;;;;5031585;28;20050;-35
2022/12/31 10:04:09;;;;;;;12.57;3.03;;;15.50;1.00;;;;;;5023900;28;20053;-36
2022/12/31 10:06:53;;;;;;;11.50;2.78;;;15.50;1.00;;;;;;5031164;28;20493;-36
2022/12/31 10:09:56;;;;;;;11.50;2.80;;;15.50;1.00;;;;;;5014158;28;20091;-35
2022/12/31 10:12:53;;;;;;;7.30;1.90;;;15.50;1.00;;;;;;5031222;28;20061;-35
2022/12/31 10:15:34;;;;;;;12.80;2.08;;;15.50;1.00;;;;;;5013955;28;20124;-35
2022/12/31 10:18:29;;;;;;;8.52;2.20;;;15.50;1.00;;;;;;5031480;28;20049;-35
2022/12/31 10:21:13;;;;;;;10.32;2.83;;;15.50;1.00;;;;;;5031515;28;20504;-36
2022/12/31 10:23:51;;;;;;;10.20;2.55;;;15.50;1.00;;;;;;5030968;28;20046;-36
2022/12/31 10:26:51;;;;;;;11.38;2.03;;;15.50;1.00;;;;;;5031376;28;20038;-36
2022/12/31 10:29:30;;;;;;;9.45;1.98;;;15.50;1.00;;;;;;5031354;28;20045;-36
2022/12/31 10:32:17;;;;;;;9.30;2.30;;;15.50;1.00;;;;;;5031236;28;20034;-36
2022/12/31 10:35:12;;;;;;;11.13;1.98;;;15.50;1.00;;;;;;5031207;28;20046;-35
2022/12/31 10:38:04;;;;;;;11.00;2.83;;;15.50;1.00;;;;;;5013719;28;20088;-36
2022/12/31 10:41:11;;;;;;;13.07;2.22;;;15.50;1.00;;;;;;5031357;28;20041;-36
2022/12/31 10:44:15;;;;;;;8.20;1.77;;;15.50;1.00;;;;;;5030788;28;20049;-36
2022/12/31 10:47:15;;;;;;;10.23;2.67;;;15.50;1.00;;;;;;5031203;28;20526;-36
2022/12/31 10:49:48;;;;;;;6.18;2.38;;;15.50;1.00;;;;;;5031321;28;20038;-36
2022/12/31 10:52:39;;;;;;;13.43;2.88;;;15.50;1.00;;;;;;5031184;28;20515;-35
2022/12/31 10:55:44;;;;;;;8.25;2.55;;;15.50;1.00;;;;;;5016994;28;20053;-36
2022/12/31 10:58:14;;;;;;;9.20;2.55;;;15.50;1.00;;;;;;5034596;28;20458;-34
2022/12/31 11:01:11;;;;;;;7.82;1.95;;;15.40;1.00;;;;;;5017112;28;20056;-35
2022/12/31 11:04:18;;;;;;;9.05;2.35;;;15.40;1.00;;;;;;5034203;28;20080;-35
2022/12/31 11:07:10;;;;;;;6.60;2.92;;;15.40;1.00;;;;;;5034441;28;20554;-35
2022/12/31 11:10:05;;;;;;;9.65;2.75;;;15.40;1.00;;;;;;5034551;28;20041;-35
2022/12/31 11:13:00;;;;;;;8.57;2.03;;;15.40;1.00;;;;;;4998998;28;20054;-35
2022/12/31 11:16:00;;;;;;;10.70;1.83;;;15.40;1.00;;;;;;5034421;28;20117;-35
2022/12/31 11:18:45;;;;;;;7.47;2.33;;;15.40;1.00;;;;;;5034267;28;20053;-36
2022/12/31 11:21:18;;;;;;;9.63;2.95;;;15.40;1.00;;;;;;5034154;28;20057;-34
2022/12/31 11:24:32;;;;;;;9.38;2.30;;;15.40;1.00;;;;;;5015959;28;20049;-35
2022/12/31 11:27:02;;;;;;;15.85;2.78;;;15.40;1.00;;;;;;4984196;28;20483;-36
2022/12/31 11:29:47;;;;;;;10.98;3.78;;;15.50;1.00;;;;;;5034074;28;20091;-36
2022/12/31 11:32:25;;;;;;;14.45;2.67;;;15.40;1.00;;;;;;5033841;28;20120;-36
2022/12/31 11:35:19;;;;;;;8.15;2.47;;;15.40;1.00;;;;;;5034387;28;20045;-36
2022/12/31 11:37:47;;;;;;;;;;;15.40;1.00;;;;;;5034411;28;20041;-35
2022/12/31 11:40:38;;;;;;;10.40;2.03;;;15.40;1.00;;;;;;5016250;28;20031;-35
2022/12/31 11:43:26;;;;;;;12.00;2.45;;;15.40;1.00;;;;;;5015976;28;20095;-35
2022/12/31 11:45:59;;;;;;;11.13;3.38;;;15.40;1.00;;;;;;5033821;28;20048;-35
2022/12/31 11:48:52;;;;;;;12.70;2.53;;;15.40;1.00;;;;;;5033750;28;20438;-36
2022/12/31 11:51:50;;;;;;;11.40;2.50;;;15.40;1.00;;;;;;5033946;28;20082;-36
2022/12/31 11:54:33;;;;;;;12.50;2.58;;;15.40;1.00;;;;;;5033336;28;20042;-35
2022/12/31 11:57:10;;;;;;;10.00;3.28;;;15.40;1.00;;;;;;5015923;28;20045;-35
2022/12/31 11:59:37;;;;;;;7.07;1.48;;;15.40;1.00;;;;;;5034302;28;20115;-36
2022/12/31 12:02:21;;;;;;;13.77;1.85;;;15.40;1.00;;;;;;5033784;28;20052;-37
2022/12/31 12:04:49;;;;;;;18.48;3.53;;;15.40;1.00;;;;;;5033100;28;20041;-37
2022/12/31 12:07:25;;;;;;;11.00;2.92;;;15.40;1.00;;;;;;5033350;28;20087;-36
2022/12/31 12:09:54;;;;;;;8.55;2.67;;;15.40;1.00;;;;;;5032785;28;20056;-36
2022/12/31 12:12:21;;;;;;;13.30;3.58;;;15.40;1.00;;;;;;5033113;28;20065;-36
2022/12/31 12:14:52;;;;;;;9.25;2.65;;;15.40;1.00;;;;;;5033133;28;20048;-36
2022/12/31 12:17:31;;;;;;;6.82;1.67;;;15.40;1.00;;;;;;5033318;28;20121;-36
2022/12/31 12:20:13;;;;;;;10.38;2.65;;;15.40;1.00;;;;;;5033279;28;20049;-36
2022/12/31 12:22:48;;;;;;;17.95;3.45;;;15.40;1.00;;;;;;5033125;28;20056;-36
2022/12/31 12:25:21;;;;;;;15.05;3.05;;;15.40;1.00;;;;;;5033044;28;20458;-35
2022/12/31 12:27:48;;;;;;;9.15;2.20;;;15.40;1.00;;;;;;5032955;28;20076;-35
2022/12/31 12:30:26;;;;;;;10.00;3.05;;;15.50;1.00;;;;;;5033064;28;20060;-35
2022/12/31 12:32:55;;;;;;;7.78;2.10;;;15.40;1.00;;;;;;5032608;28;20043;-36
2022/12/31 12:35:25;;;;;;;14.90;3.30;;;15.40;1.00;;;;;;5032757;28;20492;-35
2022/12/31 12:38:12;;;;;;;17.33;3.72;;;15.50;1.00;;;;;;5032898;28;20492;-35
2022/12/31 12:40:40;;;;;;;11.73;1.60;;;15.40;1.00;;;;;;5015157;28;20073;-35
2022/12/31 12:43:21;;;;;;;10.20;3.22;;;15.50;1.00;;;;;;5032261;28;20128;-35
2022/12/31 12:45:49;;;;;;;9.35;2.13;;;15.40;1.00;;;;;;5032734;28;20061;-35
2022/12/31 12:48:28;;;;;;;15.95;3.92;;;15.40;1.00;;;;;;5032575;28;20127;-35
2022/12/31 12:50:56;;;;;;;8.50;1.83;;;15.40;1.00;;;;;;5032530;28;20041;-35
2022/12/31 12:53:43;;;;;;;8.40;2.50;;;15.40;1.00;;;;;;5032222;28;20048;-35
2022/12/31 12:56:34;;;;;;;10.05;2.85;;;15.40;1.00;;;;;;5032418;28;20116;-35
2022/12/31 12:59:22;;;;;;;7.10;2.33;;;15.40;1.00;;;;;;5032275;28;20052;-35
2022/12/31 13:02:10;;;;;;;14.70;3.78;;;15.40;1.00;;;;;;5032569;28;20393;-35
2022/12/31 13:04:40;;;;;;;6.07;2.50;;;15.40;1.00;;;;;;5032135;28;20038;-37
2022/12/31 13:07:39;;;;;;;10.63;2.10;;;15.40;1.00;;;;;;5032263;28;20041;-36
2022/12/31 13:10:48;;;;;;;14.65;2.90;;;15.40;1.00;;;;;;5032355;28;20075;-36
2022/12/31 13:13:18;;;;;;;9.65;2.28;;;15.40;1.00;;;;;;4985795;28;20050;-36
2022/12/31 13:16:06;;;;;;;15.23;3.60;;;15.40;1.00;;;;;;5031456;28;20467;-36
2022/12/31 13:18:43;;;;;;;16.25;2.50;;;15.40;1.00;;;;;;5014556;28;20152;-37
2022/12/31 13:21:29;;;;;;;9.88;2.25;;;15.40;1.00;;;;;;5030298;28;20049;-36
2022/12/31 13:24:09;;;;;;;9.75;2.33;;;15.40;1.00;;;;;;5027983;28;20053;-36
2022/12/31 13:27:06;;;;;;;9.02;2.15;;;15.40;1.00;;;;;;5023639;28;20046;-35
2022/12/31 13:29:35;;;;;;;9.65;2.20;;;15.40;1.00;;;;;;5032143;28;20087;-36
2022/12/31 13:32:04;;;;;;;5.85;2.20;;;15.40;1.00;;;;;;5032001;28;20041;-35
2022/12/31 13:34:36;;;;;;;10.52;2.30;;;15.40;1.00;;;;;;5031517;28;20057;-35
2022/12/31 13:37:36;;;;;;;11.32;2.97;;;15.40;1.00;;;;;;5031810;28;20053;-35
2022/12/31 13:40:28;;;;;;;9.02;1.85;;;15.40;1.00;;;;;;5027472;28;20448;-35
2022/12/31 13:43:41;;;;;;;9.73;2.30;;;15.40;1.00;;;;;;5031508;28;20106;-35
2022/12/31 13:46:21;;;;;;;10.23;2.75;;;15.40;1.00;;;;;;5010470;28;20459;-36
2022/12/31 13:48:51;;;;;;;10.50;2.35;;;15.40;1.00;;;;;;5031678;28;20042;-36
2022/12/31 13:51:43;;;;;;;6.30;1.67;;;15.40;1.00;;;;;;5031815;28;20061;-36